Hostile Method-08 — HM-08 — position and weather

sailwx.info

Track history (hours):
 
Tides and Currents Weather Stations Pressure Air Temp Water Temp Dewpoint Dewpoint Depression Visibility Wind Speed Wind Dir Waves Ship Positions

Hostile Method-08

Last reported at 2018-Jul-06 18:49 UTC. Time now 2018-Jul-20 16:18 UTC.
Position N 34°09' W 119°13'.
Warning: this ship's position is 13 days out of date.

Length 26 m; draft 1.6 m.

Type: Military. MMSI: 369970279.

Date/timePositionNaut miles runAvg speedWind from/ knotsBaromVisibWave heightAir tempDewpointWater temp
2018-Jul-06 18:49N 34°09' W 119°13'0 0.4
2018-Jul-06 18:31N 34°09' W 119°13'510.4
2018-Jul-06 18:00N 34°04' W 119°14'611.3
2018-Jul-06 17:29N 33°58' W 119°15'2 3.8
2018-Jul-06 17:00N 33°59' W 119°17'1 2.7
2018-Jul-06 16:30N 33°58' W 119°17'0 0.6
2018-Jul-06 16:00N 33°58' W 119°17'2 3.3
2018-Jul-06 15:30N 33°60' W 119°16'0 0.4
2018-Jul-06 15:00N 34°00' W 119°16'0 0.4
2018-Jul-06 14:30N 33°60' W 119°16'0 0.8
2018-Jul-06 14:00N 34°00' W 119°16'2 4.3
2018-Jul-06 13:30N 34°02' W 119°15'612.2
2018-Jul-06 13:00N 34°08' W 119°13'  
2018-Jun-27 03:03N 34°09' W 119°13'0 0.0
2018-Jun-27 03:00N 34°09' W 119°13'4 7.5
2018-Jun-27 02:30N 34°07' W 119°16'714.1
2018-Jun-27 02:00N 34°03' W 119°23'714.5
2018-Jun-27 01:30N 33°58' W 119°29'714.7
2018-Jun-27 01:00N 33°52' W 119°35'712.6
2018-Jun-27 00:28N 33°48' W 119°41'0 0.2
2018-Jun-26 23:57N 33°48' W 119°42'0 0.6
2018-Jun-26 23:28N 33°48' W 119°42'1 1.2
2018-Jun-26 23:00N 33°48' W 119°41'0 0.3
2018-Jun-26 22:31N 33°48' W 119°41'0 0.3
2018-Jun-26 22:00N 33°48' W 119°41'0 0.2
2018-Jun-26 21:31N 33°48' W 119°41'1 1.8
2018-Jun-26 21:00N 33°48' W 119°43'0 0.4
2018-Jun-26 20:26N 33°48' W 119°42'0 1.0
2018-Jun-26 20:00N 33°49' W 119°43'1 1.5
2018-Jun-26 19:30N 33°48' W 119°43'3 5.4
2018-Jun-26 19:00N 33°50' W 119°41'  
Track history (hours):
 
Tides and Currents Weather Stations Pressure Air Temp Water Temp Dewpoint Dewpoint Depression Visibility Wind Speed Wind Dir Waves Ship Positions

Hostile Method-08

Last reported at 2018-Jul-06 18:49 UTC. Time now 2018-Jul-20 16:19 UTC.
Position N 34°09' W 119°13'.
Warning: this ship's position is 13 days out of date.

Length 26 m; draft 1.6 m.

Type: Military. MMSI: 369970279.

Date/timePositionNaut miles runAvg speedWind from/ knotsBaromVisibWave heightAir tempDewpointWater temp
2018-Jul-06 18:49N 34°09' W 119°13'0 0.4
2018-Jul-06 18:31N 34°09' W 119°13'510.4
2018-Jul-06 18:00N 34°04' W 119°14'611.3
2018-Jul-06 17:29N 33°58' W 119°15'2 3.8
2018-Jul-06 17:00N 33°59' W 119°17'1 2.7
2018-Jul-06 16:30N 33°58' W 119°17'0 0.6
2018-Jul-06 16:00N 33°58' W 119°17'2 3.3
2018-Jul-06 15:30N 33°60' W 119°16'0 0.4
2018-Jul-06 15:00N 34°00' W 119°16'0 0.4
2018-Jul-06 14:30N 33°60' W 119°16'0 0.8
2018-Jul-06 14:00N 34°00' W 119°16'2 4.3
2018-Jul-06 13:30N 34°02' W 119°15'612.2
2018-Jul-06 13:00N 34°08' W 119°13'  
2018-Jun-27 03:03N 34°09' W 119°13'0 0.0
2018-Jun-27 03:00N 34°09' W 119°13'4 7.5
2018-Jun-27 02:30N 34°07' W 119°16'714.1
2018-Jun-27 02:00N 34°03' W 119°23'714.5
2018-Jun-27 01:30N 33°58' W 119°29'714.7
2018-Jun-27 01:00N 33°52' W 119°35'712.6
2018-Jun-27 00:28N 33°48' W 119°41'0 0.2
2018-Jun-26 23:57N 33°48' W 119°42'0 0.6
2018-Jun-26 23:28N 33°48' W 119°42'1 1.2
2018-Jun-26 23:00N 33°48' W 119°41'0 0.3
2018-Jun-26 22:31N 33°48' W 119°41'0 0.3
2018-Jun-26 22:00N 33°48' W 119°41'0 0.2
2018-Jun-26 21:31N 33°48' W 119°41'1 1.8
2018-Jun-26 21:00N 33°48' W 119°43'0 0.4
2018-Jun-26 20:26N 33°48' W 119°42'0 1.0
2018-Jun-26 20:00N 33°49' W 119°43'1 1.5
2018-Jun-26 19:30N 33°48' W 119°43'3 5.4
2018-Jun-26 19:00N 33°50' W 119°41'  

Dump ship's entire track history